.
WxDataArchive / Data Records for 2015-04-22
2015-04-21 April 2015 2015-04-23

Data Records for Wednesday, 22 April 2015

Time	Temp	Chill	HIndex	Humid	Dewpt	 Wind 	HiWind	WindDir	Rain 	Barom
-----	----	-----	------	-----	-----	------	------	-------	-----	-----
00:00	43.3	43.3	43.3	56	28.7	1	2	315	0.00	29.694 
00:05	43.2	43.2	43.2	56	28.6	1	3	315	0.00	29.694 
00:10	43.1	43.1	43.1	55	28.0	0	2	315	0.00	29.694 
00:15	42.9	42.9	42.9	56	28.3	0	2	315	0.00	29.690 
00:20	42.8	42.8	42.8	56	28.2	1	3	315	0.00	29.690 
00:25	42.8	42.8	42.8	57	28.6	0	1	315	0.00	29.690 
00:30	42.6	42.6	42.6	57	28.4	0	1	315	0.00	29.694 
00:35	42.6	42.6	42.6	57	28.4	0	1	315	0.00	29.694 
00:40	42.5	42.5	42.5	57	28.4	0	1	315	0.00	29.694 
00:45	42.5	42.5	42.5	58	28.8	0	1	315	0.00	29.691 
00:50	42.3	42.3	42.3	58	28.6	0	0	---	0.00	29.691 
00:55	42.3	42.3	42.3	58	28.6	0	1	315	0.00	29.691 
01:00	42.2	42.2	42.2	59	28.9	0	0	---	0.00	29.693 
01:05	42.2	42.2	42.2	60	29.3	0	1	315	0.00	29.693 
01:10	42.2	42.2	42.2	59	28.9	0	1	315	0.00	29.693 
01:15	42.2	42.2	42.2	58	28.5	0	2	315	0.00	29.684 
01:20	42.2	42.2	42.2	58	28.5	0	2	315	0.00	29.684 
01:25	42.2	42.2	42.2	58	28.5	0	2	315	0.00	29.684 
01:30	42.2	42.2	42.2	58	28.5	0	0	---	0.00	29.679 
01:35	42.1	42.1	42.1	58	28.4	0	1	315	0.00	29.679 
01:40	42.1	42.1	42.1	59	28.8	0	1	315	0.00	29.679 
01:45	41.9	41.9	41.9	59	28.6	0	1	315	0.00	29.680 
01:50	41.9	41.9	41.9	59	28.6	0	1	315	0.00	29.680 
01:55	41.9	41.9	41.9	59	28.6	0	1	315	0.00	29.680 
02:00	41.9	41.9	41.9	59	28.6	0	1	315	0.00	29.677 
02:05	41.8	41.8	41.8	60	28.9	0	1	315	0.00	29.677 
02:10	41.8	41.8	41.8	61	29.4	0	0	---	0.00	29.677 
02:15	41.8	41.8	41.8	61	29.4	0	1	315	0.00	29.673 
02:20	41.6	41.6	41.6	61	29.2	0	1	315	0.00	29.673 
02:25	41.6	41.6	41.6	61	29.2	0	0	---	0.00	29.673 
02:30	41.6	41.6	41.6	61	29.2	0	1	315	0.00	29.664 
02:35	41.6	41.6	41.6	62	29.6	0	0	---	0.00	29.664 
02:40	41.6	41.6	41.6	62	29.6	0	0	---	0.00	29.664 
02:45	41.6	41.6	41.6	62	29.6	0	0	---	0.00	29.651 
02:50	41.6	41.6	41.6	62	29.6	0	1	315	0.00	29.651 
02:55	41.6	41.6	41.6	62	29.6	0	0	---	0.00	29.651 
03:00	41.6	41.6	41.6	63	30.0	0	0	---	0.00	29.648 
03:05	41.6	41.6	41.6	62	29.6	0	1	315	0.00	29.648 
03:10	41.6	41.6	41.6	62	29.6	0	1	315	0.00	29.648 
03:15	41.8	41.8	41.8	63	30.1	0	1	315	0.00	29.645 
03:20	41.8	41.8	41.8	62	29.7	0	1	315	0.00	29.645 
03:25	41.8	41.8	41.8	61	29.4	0	1	315	0.00	29.645 
03:30	41.8	41.8	41.8	60	28.9	0	2	315	0.00	29.646 
03:35	41.9	41.9	41.9	59	28.6	0	2	315	0.00	29.646 
03:40	42.2	42.2	42.2	56	27.6	1	3	315	0.00	29.646 
03:45	42.3	42.3	42.3	57	28.2	0	2	270	0.00	29.644 
03:50	42.5	42.5	42.5	57	28.4	0	2	270	0.00	29.644 
03:55	42.6	42.6	42.6	58	28.9	0	2	270	0.00	29.644 
04:00	42.5	42.5	42.5	58	28.8	1	3	270	0.00	29.636 
04:05	42.5	42.5	42.5	57	28.4	1	4	270	0.00	29.636 
04:10	42.3	42.3	42.3	56	27.7	0	3	270	0.00	29.636 
04:15	42.2	42.2	42.2	57	28.1	0	3	270	0.00	29.634 
04:20	41.9	41.9	41.9	56	27.4	0	3	270	0.00	29.634 
04:25	41.6	41.6	41.6	55	26.6	1	3	270	0.00	29.634 
04:30	41.6	41.6	41.6	54	26.2	1	5	270	0.00	29.635 
04:35	41.5	41.5	41.5	54	26.1	1	3	270	0.00	29.635 
04:40	41.3	41.3	41.3	53	25.5	1	3	248	0.00	29.635 
04:45	41.2	41.2	41.2	54	25.8	0	2	248	0.00	29.644 
04:50	41.1	41.1	41.1	53	25.3	1	3	248	0.00	29.644 
04:55	40.9	40.9	40.9	54	25.6	0	2	248	0.00	29.644 
05:00	40.8	40.8	40.8	54	25.5	0	2	248	0.00	29.644 
05:05	40.6	40.6	40.6	54	25.3	0	3	248	0.00	29.644 
05:10	40.5	40.5	40.5	54	25.2	0	1	248	0.00	29.644 
05:15	40.3	40.3	40.3	55	25.4	0	1	248	0.00	29.640 
05:20	40.2	40.2	40.2	55	25.3	0	2	248	0.00	29.640 
05:25	40.1	40.1	40.1	55	25.2	0	2	248	0.00	29.640 
05:30	40.1	40.1	40.1	55	25.2	0	1	248	0.00	29.636 
05:35	39.9	39.9	39.9	56	25.5	0	2	248	0.00	29.636 
05:40	39.8	39.8	39.8	56	25.4	0	1	248	0.00	29.636 
05:45	39.6	39.6	39.6	57	25.6	0	1	248	0.00	29.639 
05:50	39.3	39.3	39.3	58	25.8	0	1	248	0.00	29.639 
05:55	39.2	39.2	39.2	58	25.7	0	1	248	0.00	29.639 
06:00	39.1	39.1	39.1	58	25.6	0	1	248	0.00	29.641 
06:05	39.1	39.1	39.1	59	26.0	0	2	248	0.00	29.641 
06:10	39.2	39.2	39.2	59	26.1	0	2	248	0.00	29.641 
06:15	39.2	39.2	39.2	59	26.1	0	1	248	0.00	29.645 
06:20	39.2	39.2	39.2	60	26.5	0	2	248	0.00	29.645 
06:25	39.2	39.2	39.2	60	26.5	0	1	248	0.00	29.645 
06:30	39.5	39.5	39.5	60	26.8	0	2	248	0.00	29.648 
06:35	39.5	39.5	39.5	60	26.8	0	2	248	0.00	29.648 
06:40	39.6	39.6	39.6	60	26.9	0	3	248	0.00	29.648 
06:45	39.6	39.6	39.6	61	27.3	1	3	248	0.00	29.651 
06:50	39.8	39.8	39.8	61	27.5	0	2	248	0.00	29.651 
06:55	39.6	39.6	39.6	62	27.7	1	4	248	0.00	29.651 
07:00	39.6	39.6	39.6	63	28.1	0	2	248	0.00	29.652 
07:05	39.5	39.5	39.5	65	28.7	0	2	248	0.00	29.652 
07:10	39.5	39.5	39.5	66	29.1	0	1	248	0.00	29.652 
07:15	39.5	39.5	39.5	68	29.8	0	3	248	0.00	29.658 
07:20	39.5	39.5	39.5	69	30.2	0	3	248	0.00	29.658 
07:25	39.6	39.6	39.6	70	30.6	0	2	248	0.00	29.658 
07:30	39.6	39.6	39.6	70	30.6	1	3	248	0.00	29.666 
07:35	39.6	39.6	39.6	69	30.3	1	5	248	0.00	29.666 
07:40	39.5	39.5	39.5	66	29.1	1	4	270	0.00	29.666 
07:45	39.5	39.5	39.5	64	28.3	2	5	270	0.00	29.669 
07:50	39.6	39.6	39.6	63	28.1	2	4	270	0.00	29.669 
07:55	39.5	39.5	39.5	62	27.6	2	7	270	0.00	29.669 
08:00	39.5	39.5	39.5	62	27.6	2	4	270	0.00	29.677 
08:05	39.5	39.5	39.5	61	27.2	2	5	270	0.00	29.677 
08:10	39.5	39.5	39.5	61	27.2	2	5	270	0.00	29.677 
08:15	39.3	39.3	39.3	61	27.0	2	5	270	0.00	29.687 
08:20	39.3	39.3	39.3	62	27.4	1	3	315	0.00	29.687 
08:25	39.3	39.3	39.3	61	27.0	2	5	315	0.00	29.687 
08:30	39.3	39.3	39.3	61	27.0	2	6	292	0.00	29.692 
08:35	39.6	39.6	39.6	61	27.3	3	6	270	0.00	29.692 
08:40	39.9	39.9	39.9	60	27.2	3	6	270	0.00	29.692 
08:45	40.1	40.1	40.1	60	27.3	3	6	270	0.00	29.696 
08:50	39.6	39.6	39.6	61	27.3	3	6	270	0.00	29.696 
08:55	39.5	39.5	39.5	61	27.2	2	5	270	0.00	29.696 
09:00	39.5	39.5	39.5	62	27.6	2	4	270	0.00	29.697 
09:05	39.5	39.5	39.5	61	27.2	3	6	270	0.00	29.697 
09:10	39.5	39.5	39.5	61	27.2	3	7	315	0.00	29.697 
09:15	40.2	40.2	40.2	59	27.0	2	5	270	0.00	29.701 
09:20	40.5	40.5	40.5	58	26.9	3	6	270	0.00	29.701 
09:25	40.3	40.3	40.3	56	25.9	3	7	292	0.00	29.701 
09:30	40.1	40.1	40.1	56	25.7	3	5	270	0.00	29.706 
09:35	40.3	37.7	40.3	54	25.0	4	7	315	0.00	29.706 
09:40	40.2	40.2	40.2	54	24.9	3	6	270	0.00	29.706 
09:45	40.1	40.1	40.1	54	24.8	3	7	292	0.00	29.713 
09:50	39.9	39.9	39.9	54	24.6	3	10	292	0.00	29.713 
09:55	39.6	39.6	39.6	55	24.8	3	11	270	0.00	29.713 
10:00	39.5	39.5	39.5	56	25.1	2	7	248	0.00	29.717 
10:05	39.6	39.6	39.6	57	25.6	3	5	270	0.00	29.717 
10:10	39.8	39.8	39.8	57	25.8	2	5	270	0.00	29.717 
10:15	39.8	39.8	39.8	56	25.4	3	5	292	0.00	29.721 
10:20	39.8	39.8	39.8	56	25.4	2	5	270	0.00	29.721 
10:25	39.6	39.6	39.6	55	24.8	3	6	270	0.00	29.721 
10:30	39.5	39.5	39.5	57	25.5	2	5	270	0.00	29.722 
10:35	39.6	39.6	39.6	58	26.1	2	5	270	0.00	29.722 
10:40	39.8	39.8	39.8	58	26.2	2	6	270	0.00	29.722 
10:45	39.8	39.8	39.8	58	26.2	2	6	248	0.00	29.720 
10:50	39.9	39.9	39.9	58	26.3	2	5	248	0.00	29.720 
10:55	40.1	40.1	40.1	58	26.5	2	6	270	0.00	29.720 
11:00	40.2	40.2	40.2	59	27.0	2	4	270	0.00	29.726 
11:05	40.5	40.5	40.5	58	26.9	2	3	270	0.00	29.726 
11:10	40.3	40.3	40.3	56	25.9	3	7	270	0.00	29.726 
11:15	40.1	37.4	40.1	57	26.1	4	6	270	0.00	29.738 
11:20	39.9	39.9	39.9	57	25.9	3	7	270	0.00	29.738 
11:25	39.9	39.9	39.9	57	25.9	3	9	270	0.00	29.738 
11:30	39.8	37.1	39.8	56	25.4	4	9	270	0.00	29.745 
11:35	39.2	35.5	39.2	59	26.1	5	13	270	0.00	29.745 
11:40	36.9	33.7	36.9	68	27.3	4	11	315	0.00	29.745 
11:45	35.5	32.1	35.5	73	27.7	4	7	292	0.00	29.771 
11:50	34.9	34.9	34.9	76	28.1	3	7	292	0.00	29.771 
11:55	34.6	34.6	34.6	77	28.1	3	6	270	0.00	29.771 
12:00	34.6	34.6	34.6	77	28.1	3	6	270	0.00	29.775 
12:05	34.7	34.7	34.7	76	27.9	3	11	292	0.00	29.775 
12:10	35.0	31.5	35.0	74	27.6	4	10	315	0.00	29.775 
12:15	35.3	35.3	35.3	73	27.5	3	7	270	0.00	29.775 
12:20	36.0	36.0	36.0	73	28.2	2	4	292	0.00	29.775 
12:25	36.6	33.4	36.6	71	28.1	4	9	270	0.00	29.775 
12:30	37.3	37.3	37.3	70	28.4	3	7	270	0.00	29.769 
12:35	38.3	38.3	38.3	68	28.7	2	7	270	0.00	29.769 
12:40	38.8	38.8	38.8	65	28.1	3	6	270	0.00	29.769 
12:45	38.9	38.9	38.9	63	27.4	3	7	270	0.00	29.767 
12:50	39.2	39.2	39.2	63	27.7	3	6	270	0.00	29.767 
12:55	39.5	36.7	39.5	63	28.0	4	7	270	0.00	29.767 
13:00	40.1	40.1	40.1	62	28.1	2	5	270	0.00	29.757 
13:05	40.3	37.7	40.3	60	27.5	4	6	270	0.00	29.757 
13:10	40.2	40.2	40.2	59	27.0	3	6	270	0.00	29.757 
13:15	39.5	39.5	39.5	60	26.8	3	6	270	0.00	29.765 
13:20	39.2	39.2	39.2	61	26.9	3	7	270	0.00	29.765 
13:25	38.8	35.9	38.8	61	26.5	4	7	270	0.00	29.765 
13:30	38.8	38.8	38.8	63	27.3	2	6	270	0.00	29.775 
13:35	38.6	35.7	38.6	62	26.7	4	9	270	0.00	29.775 
13:40	38.5	35.6	38.5	63	27.0	4	6	270	0.00	29.775 
13:45	38.6	38.6	38.6	63	27.1	3	6	292	0.00	29.787 
13:50	38.5	38.5	38.5	63	27.0	3	7	270	0.00	29.787 
13:55	38.6	38.6	38.6	64	27.5	2	5	292	0.00	29.787 
14:00	38.5	38.5	38.5	63	27.0	2	5	292	0.00	29.795 
14:05	38.3	38.3	38.3	63	26.8	2	6	270	0.00	29.795 
14:10	38.2	38.2	38.2	62	26.3	3	7	270	0.00	29.795 
14:15	38.0	38.0	38.0	62	26.2	3	7	270	0.00	29.801 
14:20	38.3	38.3	38.3	62	26.4	3	5	270	0.00	29.801 
14:25	38.5	35.6	38.5	59	25.4	4	9	270	0.00	29.801 
14:30	38.9	38.9	38.9	59	25.8	3	6	270	0.00	29.804 
14:35	39.2	36.4	39.2	58	25.7	4	6	270	0.00	29.804 
14:40	39.2	36.4	39.2	55	24.4	4	9	270	0.00	29.804 
14:45	39.2	36.4	39.2	53	23.5	4	7	270	0.00	29.805 
14:50	39.3	36.5	39.3	53	23.6	4	7	270	0.00	29.805 
14:55	39.9	39.9	39.9	52	23.7	3	7	270	0.00	29.805 
15:00	39.9	39.9	39.9	51	23.3	3	7	270	0.00	29.806 
15:05	39.9	37.2	39.9	50	22.8	4	7	270	0.00	29.806 
15:10	40.2	40.2	40.2	49	22.6	3	6	270	0.00	29.806 
15:15	40.2	40.2	40.2	50	23.1	3	6	270	0.00	29.811 
15:20	40.1	37.4	40.1	49	22.5	4	7	270	0.00	29.811 
15:25	39.9	39.9	39.9	50	22.8	3	6	270	0.00	29.811 
15:30	39.6	36.9	39.6	49	22.0	4	10	270	0.00	29.815 
15:35	39.6	39.6	39.6	49	22.0	3	7	270	0.00	29.815 
15:40	39.6	39.6	39.6	50	22.5	3	7	270	0.00	29.815 
15:45	39.5	39.5	39.5	50	22.4	3	11	270	0.00	29.818 
15:50	39.3	39.3	39.3	50	22.2	3	8	315	0.00	29.818 
15:55	39.2	39.2	39.2	51	22.6	3	7	270	0.00	29.818 
16:00	39.2	39.2	39.2	52	23.1	3	7	270	0.00	29.826 
16:05	39.2	39.2	39.2	52	23.1	3	7	270	0.00	29.826 
16:10	39.2	39.2	39.2	52	23.1	3	6	270	0.00	29.826 
16:15	39.8	39.8	39.8	53	24.1	3	12	270	0.00	29.828 
16:20	40.1	37.4	40.1	51	23.4	4	11	270	0.00	29.828 
16:25	40.1	40.1	40.1	51	23.4	3	7	270	0.00	29.828 
16:30	40.1	40.1	40.1	52	23.9	2	4	270	0.00	29.833 
16:35	39.8	37.1	39.8	52	23.6	4	13	270	0.00	29.833 
16:40	39.6	36.9	39.6	54	24.3	4	8	270	0.00	29.833 
16:45	39.8	39.8	39.8	54	24.5	3	5	270	0.00	29.834 
16:50	40.1	40.1	40.1	54	24.8	3	5	270	0.00	29.834 
16:55	40.6	40.6	40.6	54	25.3	3	6	270	0.00	29.834 
17:00	41.3	41.3	41.3	52	25.0	3	6	292	0.00	29.825 
17:05	41.5	41.5	41.5	52	25.2	3	9	270	0.00	29.825 
17:10	41.9	41.9	41.9	52	25.6	3	5	292	0.00	29.825 
17:15	41.9	41.9	41.9	50	24.6	2	5	248	0.00	29.830 
17:20	41.6	41.6	41.6	50	24.4	3	6	270	0.00	29.830 
17:25	41.6	41.6	41.6	49	23.9	3	6	270	0.00	29.830 
17:30	41.8	41.8	41.8	49	24.1	3	6	270	0.00	29.833 
17:35	41.9	41.9	41.9	49	24.1	2	6	270	0.00	29.833 
17:40	41.9	41.9	41.9	48	23.7	3	6	270	0.00	29.833 
17:45	41.9	39.5	41.9	48	23.7	4	7	270	0.00	29.836 
17:50	41.6	41.6	41.6	48	23.4	3	7	270	0.00	29.836 
17:55	41.6	41.6	41.6	48	23.4	3	7	270	0.00	29.836 
18:00	41.5	41.5	41.5	48	23.3	3	9	315	0.00	29.838 
18:05	41.5	41.5	41.5	49	23.8	3	5	270	0.00	29.838 
18:10	41.6	41.6	41.6	49	23.9	2	7	270	0.00	29.838 
18:15	41.6	41.6	41.6	49	23.9	3	5	270	0.00	29.837 
18:20	41.8	41.8	41.8	49	24.1	2	5	270	0.00	29.837 
18:25	41.6	41.6	41.6	50	24.4	3	5	270	0.00	29.837 
18:30	41.6	41.6	41.6	50	24.4	2	4	248	0.00	29.840 
18:35	41.6	41.6	41.6	50	24.4	2	3	292	0.00	29.840 
18:40	41.5	41.5	41.5	50	24.3	2	5	270	0.00	29.840 
18:45	41.5	41.5	41.5	50	24.3	3	5	270	0.00	29.842 
18:50	41.5	41.5	41.5	50	24.3	2	5	270	0.00	29.842 
18:55	41.5	41.5	41.5	49	23.8	1	3	270	0.00	29.842 
19:00	41.6	41.6	41.6	51	24.8	1	5	270	0.00	29.848 
19:05	41.6	41.6	41.6	50	24.4	2	4	292	0.00	29.848 
19:10	41.6	41.6	41.6	51	24.8	2	4	292	0.00	29.848 
19:15	41.6	41.6	41.6	51	24.8	2	4	270	0.00	29.848 
19:20	41.6	41.6	41.6	51	24.8	1	3	270	0.00	29.848 
19:25	41.6	41.6	41.6	51	24.8	1	4	270	0.00	29.848 
19:30	41.6	41.6	41.6	51	24.8	2	5	292	0.00	29.849 
19:35	41.5	41.5	41.5	51	24.7	2	4	270	0.00	29.849 
19:40	41.5	41.5	41.5	52	25.2	1	3	270	0.00	29.849 
19:45	41.5	41.5	41.5	53	25.7	1	3	292	0.00	29.849 
19:50	41.5	41.5	41.5	53	25.7	0	3	292	0.00	29.849 
19:55	41.3	41.3	41.3	53	25.5	1	3	292	0.00	29.849 
20:00	41.3	41.3	41.3	53	25.5	1	3	270	0.00	29.855 
20:05	41.3	41.3	41.3	53	25.5	1	3	270	0.00	29.855 
20:10	41.2	41.2	41.2	53	25.4	1	4	270	0.00	29.855 
20:15	41.2	41.2	41.2	53	25.4	1	4	270	0.00	29.857 
20:20	41.2	41.2	41.2	53	25.4	1	3	292	0.00	29.857 
20:25	41.2	41.2	41.2	54	25.8	0	2	292	0.00	29.857 
20:30	41.1	41.1	41.1	54	25.7	0	2	292	0.00	29.860 
20:35	41.1	41.1	41.1	54	25.7	1	3	292	0.00	29.860 
20:40	41.1	41.1	41.1	54	25.7	0	2	292	0.00	29.860 
20:45	40.9	40.9	40.9	54	25.6	0	2	292	0.00	29.858 
20:50	40.9	40.9	40.9	54	25.6	1	2	292	0.00	29.858 
20:55	40.9	40.9	40.9	53	25.1	1	4	292	0.00	29.858 
21:00	40.9	40.9	40.9	56	26.4	1	2	270	0.00	29.862 
21:05	40.9	40.9	40.9	53	25.1	1	5	270	0.00	29.862 
21:10	41.1	41.1	41.1	53	25.3	2	4	292	0.00	29.862 
21:15	41.1	41.1	41.1	53	25.3	1	3	292	0.00	29.867 
21:20	40.9	40.9	40.9	54	25.6	1	4	292	0.00	29.867 
21:25	40.9	40.9	40.9	54	25.6	1	2	292	0.00	29.867 
21:30	40.8	40.8	40.8	54	25.5	1	3	292	0.00	29.876 
21:35	40.8	40.8	40.8	54	25.5	0	2	292	0.00	29.876 
21:40	40.8	40.8	40.8	54	25.5	1	4	315	0.00	29.876 
21:45	40.8	40.8	40.8	54	25.5	1	5	270	0.00	29.881 
21:50	40.8	40.8	40.8	54	25.5	2	5	270	0.00	29.881 
21:55	40.6	40.6	40.6	54	25.3	2	4	292	0.00	29.881 
22:00	40.6	40.6	40.6	54	25.3	1	3	292	0.00	29.881 
22:05	40.5	40.5	40.5	55	25.6	1	4	292	0.00	29.881 
22:10	40.3	40.3	40.3	55	25.4	1	6	270	0.00	29.881 
22:15	40.1	40.1	40.1	55	25.2	0	2	270	0.00	29.882 
22:20	39.8	39.8	39.8	56	25.4	0	2	270	0.00	29.882 
22:25	39.6	39.6	39.6	56	25.2	1	2	270	0.00	29.882 
22:30	39.5	39.5	39.5	57	25.5	0	1	270	0.00	29.882 
22:35	39.2	39.2	39.2	57	25.3	0	1	270	0.00	29.882 
22:40	38.9	38.9	38.9	58	25.4	0	0	---	0.00	29.882 
22:45	38.6	38.6	38.6	58	25.1	0	0	---	0.00	29.881 
22:50	38.3	38.3	38.3	59	25.2	0	0	---	0.00	29.881 
22:55	38.0	38.0	38.0	60	25.4	0	0	---	0.00	29.881 
23:00	37.6	37.6	37.6	61	25.4	0	0	---	0.00	29.879 
23:05	37.3	37.3	37.3	62	25.5	0	0	---	0.00	29.879 
23:10	37.0	37.0	37.0	62	25.2	0	0	---	0.00	29.879 
23:15	36.8	36.8	36.8	63	25.4	0	0	---	0.00	29.883 
23:20	36.5	36.5	36.5	64	25.5	0	0	---	0.00	29.883 
23:25	36.0	36.0	36.0	65	25.4	0	0	---	0.00	29.883 
23:30	35.9	35.9	35.9	66	25.7	0	0	---	0.00	29.883 
23:35	35.5	35.5	35.5	66	25.3	0	0	---	0.00	29.883 
23:40	35.2	35.2	35.2	66	25.0	0	0	---	0.00	29.883 
23:45	35.0	35.0	35.0	67	25.2	0	0	---	0.00	29.880 
23:50	34.9	34.9	34.9	68	25.4	0	0	---	0.00	29.880 
23:55	34.7	34.7	34.7	70	25.9	0	0	---	0.00	29.880 

CoCoRaHS
IN-AL-39
A2 Web Hosting
Creative Commons License
GoDaddy
search engine by freefind advanced

loaded 2018-11-18 12:07:10 • last modified 2010-11-18 10:43:29
Privacy PolicyDisclaimer
• wx.awcolley.com is powered by PmWiki v.2002016 •
• all content (unless otherwise noted) © 2018 A W Colley